Time;durP1;ratioP1;P1;durP2;ratioP2;P2;SDS_P1;SDS_P2;PMS_P1;PMS_P2;Temp;Humidity;BMP_temperature;BMP_pressure;BME280_temperature;BME280_humidity;BME280_pressure;Samples;Min_cycle;Max_cycle;Signal;HPM_P1;HPM_P2
2021/07/22 00:00:23;;;;;;;21.30;13.83;;;19.50;99.90;;;;;;5011534;28;20477;-58
2021/07/22 00:02:51;;;;;;;20.23;12.67;;;19.50;99.90;;;;;;5010532;28;20449;-58
2021/07/22 00:05:18;;;;;;;21.33;12.87;;;19.40;99.90;;;;;;5009392;28;20475;-58
2021/07/22 00:07:47;;;;;;;18.80;12.60;;;19.50;99.90;;;;;;5008448;28;20457;-57
2021/07/22 00:10:15;;;;;;;21.13;12.70;;;19.50;99.90;;;;;;5011266;28;20565;-57
2021/07/22 00:12:43;;;;;;;24.27;13.77;;;19.50;99.90;;;;;;5011135;28;20889;-58
2021/07/22 00:15:11;;;;;;;21.87;13.47;;;19.40;99.90;;;;;;5011167;28;20499;-58
2021/07/22 00:17:38;;;;;;;19.30;12.90;;;19.20;99.90;;;;;;5011286;28;20485;-58
2021/07/22 00:20:06;;;;;;;25.20;13.63;;;19.20;99.90;;;;;;5010751;28;20473;-58
2021/07/22 00:22:36;;;;;;;20.70;13.33;;;19.10;99.90;;;;;;5010940;28;20454;-58
2021/07/22 00:25:06;;;;;;;20.20;12.90;;;19.20;99.90;;;;;;5011344;28;20548;-59
2021/07/22 00:27:33;;;;;;;22.50;12.40;;;19.20;99.90;;;;;;5010987;28;20897;-57
2021/07/22 00:30:00;;;;;;;22.03;12.97;;;19.30;99.90;;;;;;5012900;28;20519;-58
2021/07/22 00:32:27;;;;;;;21.50;13.43;;;19.40;99.90;;;;;;5014218;28;20499;-58
2021/07/22 00:34:54;;;;;;;21.83;13.50;;;19.30;99.90;;;;;;5014636;28;20453;-59
2021/07/22 00:37:21;;;;;;;20.67;13.20;;;19.10;99.90;;;;;;5015232;28;20464;-58
2021/07/22 00:39:48;;;;;;;20.93;13.67;;;19.10;99.90;;;;;;5015125;28;20473;-58
2021/07/22 00:42:16;;;;;;;25.50;14.73;;;19.00;99.90;;;;;;5014561;28;20955;-58
2021/07/22 00:44:43;;;;;;;29.13;15.33;;;18.80;99.90;;;;;;5015023;28;20450;-59
2021/07/22 00:47:10;;;;;;;23.57;13.70;;;18.80;99.90;;;;;;5014520;28;20508;-59
2021/07/22 00:49:37;;;;;;;23.33;14.60;;;18.80;99.90;;;;;;5014537;28;20995;-58
2021/07/22 00:52:05;;;;;;;22.03;12.70;;;18.90;99.90;;;;;;5014130;28;20453;-59
2021/07/22 00:54:32;;;;;;;19.30;12.97;;;19.00;99.90;;;;;;5015262;28;20457;-58
2021/07/22 00:56:59;;;;;;;20.03;13.63;;;19.00;99.90;;;;;;5013996;28;20446;-58
2021/07/22 00:59:27;;;;;;;21.07;13.40;;;18.90;99.90;;;;;;5014416;28;20550;-58
2021/07/22 01:01:54;;;;;;;25.97;13.40;;;18.70;99.90;;;;;;5014376;28;20884;-58
2021/07/22 01:04:21;;;;;;;22.03;12.53;;;18.70;99.90;;;;;;5014798;28;20523;-59
2021/07/22 01:06:48;;;;;;;22.13;13.53;;;18.70;99.90;;;;;;5014237;28;20500;-59
2021/07/22 01:09:15;;;;;;;24.57;13.30;;;18.80;99.90;;;;;;5014300;28;20484;-59
2021/07/22 01:11:42;;;;;;;22.13;13.83;;;18.80;99.90;;;;;;5014268;28;20519;-59
2021/07/22 01:14:09;;;;;;;22.17;14.00;;;18.80;99.90;;;;;;5014566;28;20445;-58
2021/07/22 01:16:37;;;;;;;21.43;12.90;;;18.80;99.90;;;;;;5013773;28;21001;-59
2021/07/22 01:19:05;;;;;;;23.87;12.70;;;18.70;99.90;;;;;;5013952;28;20543;-58
2021/07/22 01:21:33;;;;;;;24.97;14.47;;;18.70;99.90;;;;;;5014312;28;20453;-58
2021/07/22 01:24:00;;;;;;;25.90;14.53;;;18.70;99.90;;;;;;5009218;28;20481;-58
2021/07/22 01:26:28;;;;;;;24.80;13.33;;;18.60;99.90;;;;;;5008373;28;20477;-58
2021/07/22 01:28:55;;;;;;;23.07;13.63;;;18.60;99.90;;;;;;5013909;28;20904;-58
2021/07/22 01:31:25;;;;;;;22.07;13.30;;;18.60;99.90;;;;;;5011637;28;20478;-59
2021/07/22 01:33:52;;;;;;;21.93;13.37;;;18.70;99.90;;;;;;5012818;28;20537;-59
2021/07/22 01:36:22;;;;;;;20.60;12.90;;;18.60;99.90;;;;;;5014177;28;20453;-58
2021/07/22 01:38:53;;;;;;;22.23;13.43;;;18.60;99.90;;;;;;5012010;28;20621;-59
2021/07/22 01:41:20;;;;;;;20.90;13.40;;;18.60;99.90;;;;;;5012495;28;20519;-59
2021/07/22 01:43:48;;;;;;;20.70;13.10;;;18.60;99.90;;;;;;5012039;28;20510;-59
2021/07/22 01:46:19;;;;;;;21.77;13.37;;;18.50;99.90;;;;;;5013449;28;20445;-58
2021/07/22 01:48:46;;;;;;;22.43;13.63;;;18.50;99.90;;;;;;5013325;28;20907;-59
2021/07/22 01:51:13;;;;;;;21.47;13.23;;;18.50;99.90;;;;;;5013733;28;20446;-58
2021/07/22 01:53:40;;;;;;;21.80;14.00;;;18.40;99.90;;;;;;5013228;28;20898;-58
2021/07/22 01:56:09;;;;;;;20.60;13.37;;;18.40;99.90;;;;;;5013115;28;20453;-58
2021/07/22 01:58:36;;;;;;;20.07;13.30;;;18.40;99.90;;;;;;5012379;28;20547;-58
2021/07/22 02:01:03;;;;;;;19.80;12.50;;;18.40;99.90;;;;;;5001936;28;20482;-57
2021/07/22 02:03:30;;;;;;;18.97;12.40;;;18.40;99.90;;;;;;5012322;28;20548;-58
2021/07/22 02:05:57;;;;;;;19.80;12.97;;;18.40;99.90;;;;;;5013193;28;20465;-58
2021/07/22 02:08:27;;;;;;;23.27;13.90;;;18.40;99.90;;;;;;5012417;28;20508;-58
2021/07/22 02:10:54;;;;;;;22.87;13.50;;;18.40;99.90;;;;;;5013381;28;20507;-58
2021/07/22 02:13:22;;;;;;;24.97;14.70;;;18.40;99.90;;;;;;5012798;28;20457;-59
2021/07/22 02:15:49;;;;;;;23.97;14.47;;;18.20;99.90;;;;;;5013468;28;20457;-57
2021/07/22 02:18:16;;;;;;;21.27;14.20;;;18.20;99.90;;;;;;5013196;28;20527;-58
2021/07/22 02:20:43;;;;;;;31.47;15.50;;;18.10;99.90;;;;;;5012197;28;20500;-58
2021/07/22 02:23:10;;;;;;;21.13;13.13;;;18.10;99.90;;;;;;5012760;28;20508;-58
2021/07/22 02:25:37;;;;;;;21.70;14.53;;;18.10;99.90;;;;;;5013045;28;20462;-57
2021/07/22 02:28:04;;;;;;;21.37;12.97;;;18.00;99.90;;;;;;5012518;28;20458;-58
2021/07/22 02:30:33;;;;;;;24.73;14.13;;;18.10;99.90;;;;;;5013270;28;21003;-58
2021/07/22 02:33:00;;;;;;;18.67;12.60;;;18.00;99.90;;;;;;5012118;28;20519;-58
2021/07/22 02:35:27;;;;;;;20.70;13.03;;;18.10;99.90;;;;;;5012885;28;20453;-57
2021/07/22 02:37:54;;;;;;;20.93;12.43;;;18.10;99.90;;;;;;5013263;28;20454;-58
2021/07/22 02:40:21;;;;;;;22.30;13.57;;;18.10;99.90;;;;;;5012799;28;21061;-58
2021/07/22 02:42:48;;;;;;;21.20;13.10;;;18.10;99.90;;;;;;5012383;28;20817;-58
2021/07/22 02:45:15;;;;;;;20.57;12.40;;;18.00;99.90;;;;;;5012997;28;20507;-57
2021/07/22 02:47:44;;;;;;;20.50;12.77;;;17.90;99.90;;;;;;5012493;28;20457;-57
2021/07/22 02:50:11;;;;;;;24.63;13.63;;;17.90;99.90;;;;;;5013178;28;20531;-58
2021/07/22 02:52:38;;;;;;;21.70;13.40;;;17.90;99.90;;;;;;5012281;28;20506;-58
2021/07/22 02:55:06;;;;;;;19.60;12.17;;;17.90;99.90;;;;;;5012766;28;20507;-58
2021/07/22 02:57:33;;;;;;;19.23;12.10;;;17.90;99.90;;;;;;5012453;28;21025;-58
2021/07/22 03:00:00;;;;;;;21.73;13.50;;;17.90;99.90;;;;;;5012831;28;20550;-57
2021/07/22 03:02:27;;;;;;;24.03;13.93;;;17.90;99.90;;;;;;5011636;28;20508;-59
2021/07/22 03:04:55;;;;;;;22.73;13.37;;;17.80;99.90;;;;;;5012576;28;20457;-57
2021/07/22 03:07:22;;;;;;;24.70;13.93;;;17.80;99.90;;;;;;5012696;28;20541;-57
2021/07/22 03:09:50;;;;;;;19.50;13.20;;;17.80;99.90;;;;;;5012651;28;20539;-58
2021/07/22 03:12:17;;;;;;;23.00;13.90;;;17.80;99.90;;;;;;5012226;28;20458;-58
2021/07/22 03:14:44;;;;;;;19.77;12.10;;;17.70;99.90;;;;;;5012906;28;20457;-58
2021/07/22 03:17:11;;;;;;;20.60;12.57;;;17.80;99.90;;;;;;5011896;28;20449;-58
2021/07/22 03:19:38;;;;;;;20.50;12.20;;;17.80;99.90;;;;;;5006998;28;20484;-58
2021/07/22 03:22:06;;;;;;;22.30;13.97;;;17.80;99.90;;;;;;5012174;28;20446;-58
2021/07/22 03:24:33;;;;;;;21.90;13.63;;;17.80;99.90;;;;;;5012541;28;20499;-58
2021/07/22 03:27:00;;;;;;;24.47;14.87;;;17.80;99.90;;;;;;5012138;28;20449;-58
2021/07/22 03:29:27;;;;;;;22.37;13.47;;;17.80;99.90;;;;;;5011258;28;20519;-58
2021/07/22 03:31:55;;;;;;;19.87;12.30;;;17.70;99.90;;;;;;5011728;28;20453;-58
2021/07/22 03:34:22;;;;;;;20.43;12.90;;;17.70;99.90;;;;;;5012195;28;20540;-57
2021/07/22 03:36:49;;;;;;;19.00;12.33;;;17.70;99.90;;;;;;5012393;28;20523;-59
2021/07/22 03:39:17;;;;;;;22.27;14.00;;;17.70;99.90;;;;;;5011944;28;21057;-58
2021/07/22 03:41:48;;;;;;;23.80;13.40;;;17.70;99.90;;;;;;5012473;28;20515;-58
2021/07/22 03:44:15;;;;;;;24.30;13.43;;;17.50;99.90;;;;;;5012138;28;20461;-58
2021/07/22 03:46:43;;;;;;;22.70;13.50;;;17.50;99.90;;;;;;5011928;28;20453;-58
2021/07/22 03:49:10;;;;;;;25.47;14.90;;;17.60;99.90;;;;;;5011490;28;20551;-59
2021/07/22 03:51:37;;;;;;;25.13;14.07;;;17.60;99.90;;;;;;5011947;28;20461;-58
2021/07/22 03:54:05;;;;;;;22.27;12.80;;;17.60;99.90;;;;;;5011512;28;20453;-57
2021/07/22 03:56:35;;;;;;;25.30;13.33;;;17.60;99.90;;;;;;5011933;28;20457;-58
2021/07/22 03:59:01;;;;;;;22.87;13.70;;;17.70;99.90;;;;;;5011447;28;20481;-57
2021/07/22 04:01:29;;;;;;;26.40;13.87;;;17.60;99.90;;;;;;5011942;28;20461;-58
2021/07/22 04:03:56;;;;;;;21.37;13.07;;;17.60;99.90;;;;;;5006201;28;20446;-58
2021/07/22 04:06:23;;;;;;;22.57;13.23;;;17.60;99.90;;;;;;5011498;28;20959;-58
2021/07/22 04:08:50;;;;;;;21.50;12.60;;;17.60;99.90;;;;;;5011505;28;21025;-58
2021/07/22 04:11:16;;;;;;;22.70;13.57;;;17.60;99.90;;;;;;5011477;28;20461;-59
2021/07/22 04:13:45;;;;;;;24.17;13.87;;;17.60;99.90;;;;;;5011036;28;20457;-59
2021/07/22 04:16:12;;;;;;;24.60;14.10;;;17.70;99.90;;;;;;5011121;28;20500;-59
2021/07/22 04:18:39;;;;;;;22.57;15.10;;;17.70;99.90;;;;;;5010571;28;20474;-59
2021/07/22 04:21:05;;;;;;;21.10;13.90;;;17.70;99.90;;;;;;5011837;28;20484;-58
2021/07/22 04:23:32;;;;;;;22.00;13.27;;;17.70;99.90;;;;;;5010844;28;20453;-58
2021/07/22 04:26:00;;;;;;;20.73;13.13;;;17.80;99.90;;;;;;5010351;28;20450;-58
2021/07/22 04:28:28;;;;;;;25.07;14.60;;;17.80;99.90;;;;;;5010575;28;20480;-58
2021/07/22 04:30:56;;;;;;;26.77;12.60;;;17.90;99.90;;;;;;5000212;28;20514;-58
2021/07/22 04:33:23;;;;;;;20.90;12.90;;;17.90;99.90;;;;;;5011368;28;20994;-58
2021/07/22 04:35:56;;;;;;;22.50;13.23;;;17.90;99.90;;;;;;5011221;28;20449;-58
2021/07/22 04:38:23;;;;;;;21.30;13.53;;;18.00;99.90;;;;;;5011139;28;20461;-58
2021/07/22 04:40:50;;;;;;;26.37;14.50;;;18.10;99.90;;;;;;5010306;28;20485;-58
2021/07/22 04:43:17;;;;;;;21.90;13.80;;;17.90;99.90;;;;;;5011383;28;20876;-58
2021/07/22 04:45:44;;;;;;;22.43;13.90;;;17.80;99.90;;;;;;5011173;28;20943;-58
2021/07/22 04:48:12;;;;;;;21.40;12.90;;;18.00;99.90;;;;;;5011189;28;20511;-58
2021/07/22 04:50:39;;;;;;;22.20;13.07;;;18.20;99.90;;;;;;5011729;28;20452;-58
2021/07/22 04:53:06;;;;;;;23.00;14.47;;;18.40;99.90;;;;;;5011233;28;20454;-58
2021/07/22 04:55:33;;;;;;;26.43;13.93;;;18.50;99.90;;;;;;5011511;28;20875;-58
2021/07/22 04:58:01;;;;;;;20.37;12.53;;;18.70;99.90;;;;;;5011828;28;20574;-58
2021/07/22 05:00:28;;;;;;;24.77;14.73;;;18.90;99.90;;;;;;5010962;28;21154;-58
2021/07/22 05:02:59;;;;;;;21.43;13.90;;;19.20;99.90;;;;;;5011097;28;20449;-58
2021/07/22 05:05:27;;;;;;;22.60;14.07;;;19.50;99.90;;;;;;5011499;28;20449;-58
2021/07/22 05:07:54;;;;;;;22.23;14.37;;;20.20;99.90;;;;;;5011377;28;20457;-58
2021/07/22 05:10:21;;;;;;;23.07;13.80;;;20.90;99.90;;;;;;5011239;28;20477;-58
2021/07/22 05:12:48;;;;;;;22.27;14.07;;;21.70;99.90;;;;;;5011322;28;20449;-58
2021/07/22 05:15:16;;;;;;;23.70;13.73;;;22.30;99.90;;;;;;5010829;28;20504;-58
2021/07/22 05:17:43;;;;;;;19.70;12.87;;;22.90;99.90;;;;;;5010597;28;20902;-58
2021/07/22 05:20:10;;;;;;;21.60;14.17;;;23.40;99.90;;;;;;5012832;28;20484;-58
2021/07/22 05:22:38;;;;;;;20.93;13.70;;;23.80;99.90;;;;;;5013715;28;20449;-58
2021/07/22 05:25:06;;;;;;;22.23;13.40;;;24.20;99.90;;;;;;5014669;28;20511;-58
2021/07/22 05:27:33;;;;;;;23.10;14.67;;;24.60;99.90;;;;;;5014371;28;20454;-58
2021/07/22 05:30:00;;;;;;;23.50;14.80;;;24.90;99.90;;;;;;5014071;28;20516;-58
2021/07/22 05:32:27;;;;;;;24.33;13.80;;;25.20;99.90;;;;;;5013500;28;21018;-59
2021/07/22 05:34:54;;;;;;;24.10;15.43;;;25.50;99.90;;;;;;5013182;28;20457;-58
2021/07/22 05:37:21;;;;;;;21.90;15.03;;;25.80;99.90;;;;;;5014215;28;20453;-59
2021/07/22 05:39:49;;;;;;;71.20;16.30;;;26.00;99.90;;;;;;5014152;28;20983;-58
2021/07/22 05:42:16;;;;;;;23.60;14.20;;;26.10;99.90;;;;;;5013933;28;20515;-58
2021/07/22 05:44:43;;;;;;;20.23;13.60;;;26.30;99.90;;;;;;5013923;28;20508;-58
2021/07/22 05:47:10;;;;;;;24.13;16.30;;;26.20;99.90;;;;;;5013699;28;22286;-58
2021/07/22 05:49:37;;;;;;;21.90;15.00;;;26.00;99.90;;;;;;5013526;28;20488;-58
2021/07/22 05:52:08;;;;;;;21.73;14.50;;;25.20;99.90;;;;;;5012623;28;20457;-59
2021/07/22 05:54:34;;;;;;;20.33;13.80;;;25.60;99.90;;;;;;5011656;28;20458;-58
2021/07/22 05:57:03;;;;;;;23.33;15.80;;;26.00;99.90;;;;;;5014289;28;20449;-58
2021/07/22 05:59:30;;;;;;;23.13;15.27;;;25.90;99.90;;;;;;5013024;28;20485;-59
2021/07/22 06:01:57;;;;;;;20.77;14.83;;;25.60;99.90;;;;;;5013087;28;20877;-58
2021/07/22 06:04:24;;;;;;;24.40;14.47;;;26.00;99.90;;;;;;5013688;28;20512;-58
2021/07/22 06:06:51;;;;;;;22.80;14.70;;;26.20;99.90;;;;;;5014167;28;20450;-58
2021/07/22 06:09:18;;;;;;;21.40;14.97;;;26.70;99.90;;;;;;5013842;28;20485;-58
2021/07/22 06:11:45;;;;;;;22.17;15.43;;;26.40;99.90;;;;;;5013010;28;20454;-58
2021/07/22 06:14:13;;;;;;;21.10;15.00;;;25.50;99.90;;;;;;5012781;28;20516;-58
2021/07/22 06:16:40;;;;;;;25.90;15.17;;;25.90;99.90;;;;;;5013264;28;20504;-58
2021/07/22 06:19:09;;;;;;;24.13;14.97;;;26.80;99.90;;;;;;5012443;28;20548;-59
2021/07/22 06:21:36;;;;;;;22.97;15.07;;;27.40;99.90;;;;;;5012958;28;20476;-58
2021/07/22 06:24:03;;;;;;;21.40;15.03;;;27.90;99.90;;;;;;5012151;28;20669;-59
2021/07/22 06:26:34;;;;;;;18.97;14.03;;;27.10;99.90;;;;;;5005317;28;20449;-58
2021/07/22 06:29:01;;;;;;;21.30;15.07;;;27.60;99.90;;;;;;5010883;28;20553;-59
2021/07/22 06:31:29;;;;;;;20.80;14.40;;;28.30;99.90;;;;;;5011929;28;21004;-58
2021/07/22 06:33:57;;;;;;;23.67;14.90;;;28.50;99.90;;;;;;5012542;28;20449;-58
2021/07/22 06:36:24;;;;;;;19.70;14.37;;;28.50;99.90;;;;;;5012770;28;20448;-58
2021/07/22 06:38:51;;;;;;;23.13;14.93;;;28.80;99.90;;;;;;5012452;28;20520;-59
2021/07/22 06:41:21;;;;;;;21.80;14.00;;;28.90;99.90;;;;;;5012465;28;20496;-58
2021/07/22 06:43:48;;;;;;;22.27;14.63;;;28.60;99.90;;;;;;5012057;28;20943;-58
2021/07/22 06:46:15;;;;;;;19.97;13.90;;;28.40;99.90;;;;;;5012293;28;20879;-59
2021/07/22 06:48:44;;;;;;;19.83;14.23;;;29.00;99.90;;;;;;5012189;28;20531;-59
2021/07/22 06:51:11;;;;;;;18.03;13.00;;;29.20;99.90;;;;;;5007615;28;20808;-58
2021/07/22 06:53:38;;;;;;;18.47;13.17;;;29.50;99.90;;;;;;5011799;28;20476;-59
2021/07/22 06:56:06;;;;;;;16.93;12.90;;;29.00;99.90;;;;;;5013092;28;20529;-59
2021/07/22 06:58:33;;;;;;;20.00;13.67;;;28.80;99.90;;;;;;5012829;28;20982;-58
2021/07/22 07:01:00;;;;;;;18.43;12.67;;;29.20;99.90;;;;;;5012772;28;20533;-58
2021/07/22 07:03:27;;;;;;;19.30;14.00;;;28.80;99.90;;;;;;5012916;28;20508;-58
2021/07/22 07:05:55;;;;;;;20.30;12.77;;;28.70;99.90;;;;;;5012887;28;20990;-59
2021/07/22 07:08:22;;;;;;;25.40;13.83;;;28.30;99.90;;;;;;5012748;28;20455;-59
2021/07/22 07:10:49;;;;;;;18.83;13.27;;;28.10;99.90;;;;;;5012897;28;20446;-58
2021/07/22 07:13:16;;;;;;;22.30;13.10;;;28.30;99.90;;;;;;4994988;28;20948;-58
2021/07/22 07:15:43;;;;;;;19.80;13.53;;;28.70;99.90;;;;;;4998106;28;20520;-58
2021/07/22 07:18:10;;;;;;;18.63;13.77;;;27.90;99.90;;;;;;5012782;28;20449;-59
2021/07/22 07:20:37;;;;;;;16.43;12.60;;;28.20;99.90;;;;;;5012674;28;20477;-58
2021/07/22 07:23:05;;;;;;;17.87;13.23;;;28.80;99.90;;;;;;5012480;28;20449;-59
2021/07/22 07:25:33;;;;;;;17.30;12.20;;;29.00;99.90;;;;;;5012376;28;20465;-59
2021/07/22 07:28:00;;;;;;;18.70;13.67;;;29.30;99.90;;;;;;5012705;28;20453;-59
2021/07/22 07:30:27;;;;;;;20.90;12.67;;;29.60;99.90;;;;;;5012573;28;20465;-59
2021/07/22 07:32:55;;;;;;;17.97;12.97;;;29.70;99.90;;;;;;5012149;28;20450;-59
2021/07/22 07:35:25;;;;;;;20.73;14.20;;;28.90;99.90;;;;;;5012480;28;20540;-59
2021/07/22 07:37:52;;;;;;;23.30;13.47;;;29.50;99.90;;;;;;5012441;28;20449;-59
2021/07/22 07:40:21;;;;;;;18.00;13.00;;;29.80;99.90;;;;;;5012144;28;20555;-59
2021/07/22 07:42:48;;;;;;;18.90;12.70;;;29.70;99.90;;;;;;5012302;28;20448;-59
2021/07/22 07:45:15;;;;;;;18.90;12.90;;;29.90;99.90;;;;;;5012245;28;20449;-59
2021/07/22 07:47:42;;;;;;;18.47;13.50;;;30.20;99.90;;;;;;5011831;28;20454;-59
2021/07/22 07:50:10;;;;;;;20.50;13.53;;;30.30;99.90;;;;;;5011099;28;20472;-59
2021/07/22 07:52:39;;;;;;;19.30;13.70;;;29.70;99.90;;;;;;5011305;28;20453;-59
2021/07/22 07:55:07;;;;;;;20.50;14.30;;;28.20;99.90;;;;;;5011819;28;20476;-59
2021/07/22 07:57:36;;;;;;;18.83;13.20;;;27.40;99.90;;;;;;5012239;28;20453;-59
2021/07/22 08:00:04;;;;;;;17.20;12.40;;;27.40;99.90;;;;;;5011770;28;20512;-59
2021/07/22 08:02:31;;;;;;;18.20;13.77;;;27.40;99.90;;;;;;5012207;28;20453;-59
2021/07/22 08:04:58;;;;;;;16.80;13.43;;;28.00;99.90;;;;;;5002614;28;20458;-59
2021/07/22 08:07:25;;;;;;;18.27;13.13;;;28.40;99.90;;;;;;5011891;28;20449;-58
2021/07/22 08:09:52;;;;;;;23.80;13.27;;;27.80;99.90;;;;;;5067577;22;20498;-55
2021/07/22 08:12:20;;;;;;;21.10;13.53;;;27.70;99.90;;;;;;5070942;28;20868;-53
2021/07/22 08:14:48;;;;;;;20.57;12.40;;;28.00;99.90;;;;;;5071520;28;20451;-53
2021/07/22 08:17:17;;;;;;;17.90;12.70;;;28.20;99.90;;;;;;5057623;28;20452;-53
2021/07/22 08:19:44;;;;;;;20.50;12.77;;;27.80;99.90;;;;;;5051716;28;20589;-53
2021/07/22 08:22:13;;;;;;;19.47;13.00;;;28.70;99.90;;;;;;5051418;28;20874;-54
2021/07/22 08:24:41;;;;;;;20.07;13.53;;;29.60;99.90;;;;;;5055121;28;20526;-53
2021/07/22 08:27:08;;;;;;;19.80;13.50;;;29.10;99.90;;;;;;5050797;28;20443;-53
2021/07/22 08:29:40;;;;;;;20.30;12.63;;;29.20;99.90;;;;;;5050937;28;20562;-53
2021/07/22 08:32:08;;;;;;;18.63;12.93;;;29.50;99.90;;;;;;5053634;28;20444;-54
2021/07/22 08:34:36;;;;;;;20.43;14.33;;;28.30;99.90;;;;;;5050562;28;20443;-53
2021/07/22 08:37:09;;;;;;;20.03;14.80;;;28.10;99.90;;;;;;5061956;28;20454;-53
2021/07/22 08:39:39;;;;;;;22.73;14.50;;;28.00;99.90;;;;;;5069125;28;20467;-52
2021/07/22 08:42:09;;;;;;;22.23;15.10;;;28.90;99.90;;;;;;5068845;28;20995;-52
2021/07/22 08:44:36;;;;;;;21.40;14.10;;;29.40;99.90;;;;;;5051966;28;20879;-53
2021/07/22 08:47:05;;;;;;;19.10;14.13;;;29.60;99.90;;;;;;5050677;28;20444;-52
2021/07/22 08:49:35;;;;;;;21.70;14.43;;;29.40;99.90;;;;;;5065656;28;20462;-53
2021/07/22 08:52:06;;;;;;;24.00;15.23;;;29.70;99.90;;;;;;5071232;28;20508;-55
2021/07/22 08:54:33;;;;;;;19.40;13.93;;;29.20;99.90;;;;;;5071575;28;20470;-54
2021/07/22 08:57:04;;;;;;;20.43;14.60;;;30.00;99.90;;;;;;5054604;28;20505;-53
2021/07/22 08:59:32;;;;;;;21.37;14.50;;;29.70;99.90;;;;;;5071874;28;20523;-53
2021/07/22 09:02:04;;;;;;;16.63;13.33;;;29.40;99.90;;;;;;5053674;28;20498;-52
2021/07/22 09:04:31;;;;;;;18.53;13.97;;;29.80;99.90;;;;;;5058297;28;20447;-54
2021/07/22 09:07:00;;;;;;;16.87;13.00;;;30.50;99.90;;;;;;5060967;28;20505;-54
2021/07/22 09:09:27;;;;;;;18.73;13.40;;;30.90;99.90;;;;;;5066697;28;20479;-53
2021/07/22 09:11:58;;;;;;;23.43;13.67;;;30.00;99.90;;;;;;5068600;28;20439;-52
2021/07/22 09:14:26;;;;;;;19.90;13.60;;;29.00;99.90;;;;;;5074439;28;20486;-52
2021/07/22 09:16:54;;;;;;;16.13;13.10;;;29.90;99.90;;;;;;5057004;28;20451;-53
2021/07/22 09:19:36;;;;;;;20.27;13.93;;;30.60;99.90;;;;;;5053832;28;20540;-54
2021/07/22 09:22:05;;;;;;;18.53;13.50;;;31.10;99.90;;;;;;5054163;28;20558;-54
2021/07/22 09:24:48;;;;;;;19.63;13.87;;;30.60;99.90;;;;;;5054750;28;20451;-53
2021/07/22 09:27:33;;;;;;;19.30;13.20;;;30.30;99.90;;;;;;5063060;28;20462;-53
2021/07/22 09:30:01;;;;;;;17.50;13.70;;;30.70;99.90;;;;;;5054005;28;20509;-55
2021/07/22 09:32:32;;;;;;;16.73;12.90;;;31.20;99.90;;;;;;5053928;28;20836;-55
2021/07/22 09:35:13;;;;;;;15.90;13.10;;;30.60;99.90;;;;;;5056575;28;20448;-53
2021/07/22 09:37:44;;;;;;;17.57;13.33;;;30.70;99.90;;;;;;5054200;28;20452;-54
2021/07/22 09:40:12;;;;;;;18.50;14.20;;;30.90;99.90;;;;;;5064773;28;20462;-55
2021/07/22 09:42:47;;;;;;;19.90;13.00;;;30.80;99.90;;;;;;5071759;28;20450;-54
2021/07/22 09:45:16;;;;;;;17.77;13.53;;;30.80;99.90;;;;;;5070494;28;20962;-54
2021/07/22 09:47:43;;;;;;;20.03;13.77;;;30.70;99.90;;;;;;5054154;28;20456;-54
2021/07/22 09:50:12;;;;;;;21.00;14.20;;;30.70;99.90;;;;;;5061751;28;20504;-53
2021/07/22 09:52:39;;;;;;;18.00;12.37;;;30.10;99.90;;;;;;5073705;28;20454;-54
2021/07/22 09:55:26;;;;;;;18.87;13.83;;;30.50;99.90;;;;;;5073802;28;20819;-54
2021/07/22 09:57:57;;;;;;;18.90;13.73;;;29.80;99.90;;;;;;5053891;28;20904;-54
2021/07/22 10:00:26;;;;;;;22.90;14.63;;;29.80;99.90;;;;;;5053369;28;20467;-53
2021/07/22 10:02:54;;;;;;;19.80;14.03;;;29.30;99.90;;;;;;5051776;28;20871;-54
2021/07/22 10:05:24;;;;;;;21.77;14.47;;;29.10;99.90;;;;;;5053610;28;20447;-54
2021/07/22 10:07:53;;;;;;;17.50;12.93;;;29.60;99.90;;;;;;5053737;28;20451;-54
2021/07/22 10:10:21;;;;;;;18.13;13.40;;;30.00;99.90;;;;;;5053457;28;20563;-53
2021/07/22 10:12:55;;;;;;;17.33;13.60;;;30.00;99.90;;;;;;5053518;28;21022;-54
2021/07/22 10:15:24;;;;;;;17.30;14.20;;;29.50;99.90;;;;;;5053579;28;20447;-54
2021/07/22 10:17:53;;;;;;;18.13;13.47;;;30.10;99.90;;;;;;5053520;28;20531;-53
2021/07/22 10:20:21;;;;;;;19.13;13.50;;;29.70;99.90;;;;;;5053606;28;20464;-53
2021/07/22 10:22:48;;;;;;;18.17;13.87;;;30.10;99.90;;;;;;5053382;28;20493;-54
2021/07/22 10:25:16;;;;;;;20.27;13.90;;;30.20;99.90;;;;;;5053508;28;20530;-53
2021/07/22 10:27:43;;;;;;;17.57;14.03;;;29.60;99.90;;;;;;5053363;28;20904;-52
2021/07/22 10:30:14;;;;;;;16.83;13.23;;;29.90;99.90;;;;;;5067191;28;20473;-54
2021/07/22 10:32:44;;;;;;;21.40;13.40;;;29.40;99.90;;;;;;5072997;28;20988;-53
2021/07/22 10:35:12;;;;;;;20.57;14.90;;;28.80;99.90;;;;;;5073379;28;20454;-53
2021/07/22 10:37:59;;;;;;;21.10;13.70;;;28.70;99.90;;;;;;5073215;28;20446;-53
2021/07/22 10:40:54;;;;;;;17.90;13.17;;;29.20;99.90;;;;;;5072753;28;20471;-55
2021/07/22 10:43:42;;;;;;;18.17;13.00;;;29.30;99.90;;;;;;5072982;28;20797;-54
2021/07/22 10:46:12;;;;;;;22.20;13.63;;;28.90;99.90;;;;;;5071373;28;20529;-53
2021/07/22 10:48:40;;;;;;;20.60;14.37;;;28.00;99.90;;;;;;5072831;28;20450;-54
2021/07/22 10:51:15;;;;;;;18.77;13.03;;;28.60;99.90;;;;;;5072841;28;20492;-53
2021/07/22 10:53:44;;;;;;;18.97;13.40;;;28.70;99.90;;;;;;5072468;28;20504;-52
2021/07/22 10:56:12;;;;;;;18.83;13.57;;;29.20;99.90;;;;;;5072736;28;20476;-54
2021/07/22 10:58:55;;;;;;;15.63;12.20;;;29.40;99.90;;;;;;5072737;28;20443;-54
2021/07/22 11:01:57;;;;;;;23.37;13.60;;;29.80;99.90;;;;;;5073399;28;20536;-53
2021/07/22 11:04:47;;;;;;;18.40;13.30;;;28.70;99.90;;;;;;5052765;28;20455;-53
2021/07/22 11:07:19;;;;;;;17.93;13.07;;;28.20;99.90;;;;;;5056231;28;20505;-53
2021/07/22 11:09:48;;;;;;;19.70;13.90;;;27.70;99.90;;;;;;5059304;28;20997;-52
2021/07/22 11:12:42;;;;;;;15.97;12.77;;;27.70;99.90;;;;;;5055358;28;20509;-52
2021/07/22 11:15:10;;;;;;;16.80;12.77;;;28.20;99.90;;;;;;5043376;28;20983;-52
2021/07/22 11:17:38;;;;;;;24.90;13.37;;;28.30;99.90;;;;;;5058109;28;20496;-52
2021/07/22 11:20:42;;;;;;;16.10;12.30;;;27.80;99.90;;;;;;5070234;28;20479;-54
2021/07/22 11:23:17;;;;;;;17.23;12.80;;;27.20;99.90;;;;;;5062367;28;20482;-53
2021/07/22 11:25:49;;;;;;;23.03;15.00;;;27.30;99.90;;;;;;5052945;28;20491;-53
2021/07/22 11:28:17;;;;;;;18.47;13.43;;;27.30;99.90;;;;;;5052048;28;20455;-52
2021/07/22 11:31:00;;;;;;;20.50;12.67;;;27.20;99.90;;;;;;5051878;28;20474;-53
2021/07/22 11:33:32;;;;;;;22.07;12.00;;;27.00;99.90;;;;;;5053172;28;21043;-53
2021/07/22 11:35:59;;;;;;;15.47;11.87;;;27.50;99.90;;;;;;5072034;28;20445;-52
2021/07/22 11:38:27;;;;;;;17.77;12.60;;;27.90;99.90;;;;;;5059412;28;20878;-51
2021/07/22 11:40:55;;;;;;;18.43;12.47;;;27.80;99.90;;;;;;5055864;28;20455;-52
2021/07/22 11:43:42;;;;;;;18.67;12.30;;;28.00;99.90;;;;;;5051423;28;20818;-54
2021/07/22 11:46:10;;;;;;;16.97;12.10;;;27.40;99.90;;;;;;5052047;28;20509;-52
2021/07/22 11:48:40;;;;;;;18.57;12.13;;;27.00;99.90;;;;;;5063769;28;20869;-53
2021/07/22 11:51:08;;;;;;;16.27;12.20;;;27.00;99.90;;;;;;5071591;28;20454;-51
2021/07/22 11:53:38;;;;;;;17.40;12.13;;;27.30;99.90;;;;;;5066917;28;20509;-52
2021/07/22 11:56:15;;;;;;;20.43;13.60;;;27.50;99.90;;;;;;5051428;28;20447;-53
2021/07/22 11:58:47;;;;;;;18.17;12.97;;;27.70;99.90;;;;;;5051450;28;20995;-53
2021/07/22 12:01:14;;;;;;;16.93;12.50;;;27.50;99.90;;;;;;5051443;28;20545;-51
2021/07/22 12:03:45;;;;;;;21.13;12.67;;;27.60;99.90;;;;;;5052221;28;20958;-51
2021/07/22 12:06:13;;;;;;;17.00;12.53;;;27.50;99.90;;;;;;5051462;28;20945;-53
2021/07/22 12:08:40;;;;;;;16.40;12.50;;;27.40;99.90;;;;;;5054173;28;20488;-52
2021/07/22 12:11:07;;;;;;;14.73;11.67;;;27.60;99.90;;;;;;5060888;28;20501;-53
2021/07/22 12:13:50;;;;;;;19.00;13.60;;;27.80;99.90;;;;;;5069966;28;20450;-54
2021/07/22 12:16:22;;;;;;;18.80;12.77;;;28.30;99.90;;;;;;5070770;28;20509;-52
2021/07/22 12:18:52;;;;;;;19.83;12.47;;;28.10;99.90;;;;;;5071476;28;20936;-54
2021/07/22 12:21:24;;;;;;;18.10;12.70;;;28.20;99.90;;;;;;5071295;28;20454;-52
2021/07/22 12:23:51;;;;;;;19.80;12.93;;;28.40;99.90;;;;;;5070955;28;20458;-54
2021/07/22 12:26:18;;;;;;;18.60;12.47;;;27.90;99.90;;;;;;5066488;28;20457;-53
2021/07/22 12:28:47;;;;;;;17.23;12.30;;;27.60;99.90;;;;;;5066574;28;20450;-53
2021/07/22 12:31:15;;;;;;;16.80;11.77;;;27.50;99.90;;;;;;5056062;28;20949;-52
2021/07/22 12:33:42;;;;;;;19.13;13.13;;;27.40;99.90;;;;;;5062682;28;20448;-51
2021/07/22 12:36:21;;;;;;;17.37;11.77;;;27.10;99.90;;;;;;5055406;28;20538;-53